createdAt,value
2022-11-13T00:00:13.403Z,20.21
2022-11-13T00:01:38.865Z,19.84
2022-11-13T00:02:13.008Z,19.90
2022-11-13T00:02:53.912Z,20.60
2022-11-13T00:03:35.958Z,21.00
2022-11-13T00:04:16.852Z,20.84
2022-11-13T00:04:56.893Z,20.76
2022-11-13T00:05:36.865Z,20.65
2022-11-13T00:06:18.916Z,20.61
2022-11-13T00:06:59.580Z,21.48
2022-11-13T00:07:39.876Z,21.51
2022-11-13T00:08:19.850Z,21.25
2022-11-13T00:09:00.930Z,20.99
2022-11-13T00:09:40.849Z,21.17
2022-11-13T00:10:21.888Z,20.45
2022-11-13T00:11:24.862Z,21.16
2022-11-13T00:12:04.897Z,21.31
2022-11-13T00:12:44.840Z,20.85
2022-11-13T00:13:32.860Z,20.71
2022-11-13T00:14:06.516Z,20.11
2022-11-13T00:14:53.849Z,20.88
2022-11-13T00:15:27.666Z,21.14
2022-11-13T00:16:18.849Z,21.05
2022-11-13T00:16:52.601Z,21.04
2022-11-13T00:17:41.869Z,20.94
2022-11-13T00:18:15.554Z,20.95
2022-11-13T00:18:56.843Z,21.39
2022-11-13T00:19:30.931Z,20.99
2022-11-13T00:20:05.511Z,20.88
2022-11-13T00:20:45.837Z,20.86
2022-11-13T00:21:27.169Z,20.20
2022-11-13T00:22:00.619Z,20.41
2022-11-13T00:22:40.840Z,20.99
2022-11-13T00:23:14.880Z,21.75
2022-11-13T00:23:49.027Z,21.50
2022-11-13T00:24:29.871Z,20.69
2022-11-13T00:25:03.872Z,19.92
2022-11-13T00:25:37.499Z,20.25
2022-11-13T00:26:26.832Z,20.10
2022-11-13T00:27:00.916Z,19.66
2022-11-13T00:27:34.803Z,19.51
2022-11-13T00:28:14.867Z,19.41
2022-11-13T00:28:48.892Z,18.96
2022-11-13T00:29:22.542Z,19.01
2022-11-13T00:30:03.850Z,19.08
2022-11-13T00:30:37.926Z,19.35
2022-11-13T00:31:14.207Z,19.65
2022-11-13T00:31:53.820Z,19.71
2022-11-13T00:32:27.860Z,19.39
2022-11-13T00:33:01.549Z,18.38
2022-11-13T00:34:09.040Z,18.79
2022-11-13T00:34:52.300Z,19.27
2022-11-13T00:35:32.861Z,18.75
2022-11-13T00:36:29.949Z,19.05
2022-11-13T00:37:09.844Z,18.58
2022-11-13T00:37:49.862Z,18.30
2022-11-13T00:38:30.029Z,18.83
2022-11-13T00:39:10.888Z,18.86
2022-11-13T00:39:53.417Z,19.08
2022-11-13T00:40:44.837Z,18.75
2022-11-13T00:41:18.517Z,19.10
2022-11-13T00:42:05.832Z,19.20
2022-11-13T00:42:39.549Z,18.80
2022-11-13T00:43:26.819Z,18.76
2022-11-13T00:44:00.487Z,18.85
2022-11-13T00:44:47.801Z,18.73
2022-11-13T00:45:21.538Z,18.67
2022-11-13T00:46:09.842Z,18.99
2022-11-13T00:46:43.496Z,19.04
2022-11-13T00:47:30.854Z,18.91
2022-11-13T00:48:04.658Z,18.90
2022-11-13T00:48:52.839Z,18.48
2022-11-13T00:49:26.495Z,18.01
2022-11-13T00:50:13.832Z,18.31
2022-11-13T00:50:47.937Z,18.75
2022-11-13T00:51:35.882Z,18.52
2022-11-13T00:52:09.580Z,17.90
2022-11-13T00:52:56.815Z,17.83
2022-11-13T00:53:30.552Z,17.54
2022-11-13T00:54:17.819Z,17.17
2022-11-13T00:54:51.523Z,17.63
2022-11-13T00:55:38.808Z,17.77
2022-11-13T00:56:12.466Z,17.71
2022-11-13T00:57:00.827Z,17.88
2022-11-13T00:57:34.685Z,18.20
2022-11-13T00:58:21.794Z,18.30
2022-11-13T00:58:55.509Z,18.09
2022-11-13T00:59:42.820Z,18.11
2022-11-13T01:00:16.935Z,18.48
2022-11-13T01:01:03.805Z,18.17
2022-11-13T01:01:37.521Z,18.40
2022-11-13T01:02:25.863Z,18.50
2022-11-13T01:03:00.031Z,18.14
2022-11-13T01:03:47.818Z,18.38
2022-11-13T01:04:21.807Z,18.73
2022-11-13T01:05:08.836Z,19.26
2022-11-13T01:05:44.764Z,19.04
2022-11-13T01:06:35.914Z,19.56
2022-11-13T01:07:09.576Z,19.79
2022-11-13T01:07:50.813Z,19.33
2022-11-13T01:08:25.009Z,19.15
2022-11-13T01:09:02.383Z,19.19
2022-11-13T01:09:43.777Z,18.38
2022-11-13T01:10:17.826Z,18.51
2022-11-13T01:10:53.745Z,18.74
2022-11-13T01:11:36.773Z,18.58
2022-11-13T01:12:16.920Z,18.54
2022-11-13T01:12:57.814Z,19.11
2022-11-13T01:13:37.809Z,19.80
2022-11-13T01:14:17.807Z,20.13
2022-11-13T01:14:57.931Z,20.11
2022-11-13T01:15:37.801Z,19.83
2022-11-13T01:16:19.827Z,19.55
2022-11-13T01:16:59.792Z,19.40
2022-11-13T01:17:39.805Z,19.35
2022-11-13T01:18:20.815Z,19.33
2022-11-13T01:19:01.900Z,19.52
2022-11-13T01:19:41.777Z,19.19
2022-11-13T01:20:22.820Z,18.73
2022-11-13T01:21:16.803Z,18.90
2022-11-13T01:21:56.828Z,18.44
2022-11-13T01:22:36.777Z,18.61
2022-11-13T01:23:17.827Z,18.58
2022-11-13T01:23:58.790Z,17.99
2022-11-13T01:24:38.795Z,17.85
2022-11-13T01:25:18.769Z,17.48
2022-11-13T01:25:58.795Z,17.39
2022-11-13T01:26:38.752Z,17.65
2022-11-13T01:27:18.826Z,18.14
2022-11-13T01:27:58.797Z,17.58
2022-11-13T01:28:39.852Z,17.89
2022-11-13T01:29:19.789Z,17.74
2022-11-13T01:30:00.802Z,17.60
2022-11-13T01:30:41.771Z,17.91
2022-11-13T01:31:25.927Z,18.26
2022-11-13T01:32:05.751Z,17.71
2022-11-13T01:32:45.818Z,17.76
2022-11-13T01:33:25.783Z,18.15
2022-11-13T01:34:06.806Z,17.58
2022-11-13T01:34:46.794Z,17.52
2022-11-13T01:35:26.800Z,17.91
2022-11-13T01:36:16.769Z,17.30
2022-11-13T01:36:56.816Z,17.16
2022-11-13T01:37:36.780Z,16.92
2022-11-13T01:38:16.775Z,16.76
2022-11-13T01:38:57.758Z,16.70
2022-11-13T01:39:38.807Z,16.60
2022-11-13T01:40:20.809Z,16.88
2022-11-13T01:41:00.904Z,16.85
2022-11-13T01:41:41.760Z,17.15
2022-11-13T01:42:21.819Z,16.66
2022-11-13T01:43:01.754Z,16.59
2022-11-13T01:43:44.802Z,16.52
2022-11-13T01:44:25.747Z,16.80
2022-11-13T01:45:07.797Z,17.10
2022-11-13T01:46:05.765Z,16.66
2022-11-13T01:46:58.850Z,16.45
2022-11-13T01:47:38.752Z,16.64
2022-11-13T01:48:19.813Z,16.58
2022-11-13T01:49:45.760Z,16.13
2022-11-13T01:50:26.784Z,16.60
2022-11-13T01:51:06.774Z,16.80
2022-11-13T01:51:53.760Z,16.54
2022-11-13T01:52:40.763Z,16.77
2022-11-13T01:53:20.809Z,16.41
2022-11-13T01:54:01.761Z,16.64
2022-11-13T01:54:47.787Z,17.09
2022-11-13T01:55:27.759Z,16.59
2022-11-13T01:56:15.806Z,16.26
2022-11-13T01:56:49.593Z,16.96
2022-11-13T01:57:37.736Z,16.35
2022-11-13T01:58:12.191Z,16.16
2022-11-13T01:59:07.735Z,16.44
2022-11-13T01:59:50.308Z,16.56
2022-11-13T02:00:36.755Z,16.33
2022-11-13T02:01:10.460Z,16.05
2022-11-13T02:01:51.826Z,16.51
2022-11-13T02:02:25.791Z,16.41
2022-11-13T02:02:59.524Z,16.14
2022-11-13T02:03:40.740Z,15.90
2022-11-13T02:04:14.787Z,15.44
2022-11-13T02:04:48.479Z,15.30
2022-11-13T02:05:28.724Z,15.77
2022-11-13T02:06:02.804Z,15.89
2022-11-13T02:06:51.552Z,15.56
2022-11-13T02:07:32.774Z,15.51
2022-11-13T02:08:06.799Z,15.27
2022-11-13T02:08:40.448Z,15.24
2022-11-13T02:09:24.731Z,15.36
2022-11-13T02:10:02.768Z,15.85
2022-11-13T02:10:36.432Z,16.10
2022-11-13T02:11:17.714Z,15.32
2022-11-13T02:11:52.751Z,15.25
2022-11-13T02:12:42.770Z,15.93
2022-11-13T02:13:22.778Z,15.69
2022-11-13T02:14:02.733Z,15.50
2022-11-13T02:14:46.773Z,15.26
2022-11-13T02:15:32.734Z,15.16
2022-11-13T02:16:14.780Z,15.00
2022-11-13T02:16:55.721Z,15.19
2022-11-13T02:17:58.734Z,15.13
2022-11-13T02:18:32.864Z,14.86
2022-11-13T02:19:28.730Z,15.09
2022-11-13T02:20:04.917Z,15.35
2022-11-13T02:21:07.735Z,14.68
2022-11-13T02:21:59.060Z,14.89
2022-11-13T02:22:48.726Z,15.32
2022-11-13T02:23:50.752Z,15.49
2022-11-13T02:24:45.549Z,15.49
2022-11-13T02:25:26.756Z,15.48
2022-11-13T02:26:07.861Z,15.73
2022-11-13T02:26:48.736Z,16.00
2022-11-13T02:27:46.841Z,16.54
2022-11-13T02:28:28.014Z,15.95
2022-11-13T02:29:14.731Z,16.19
2022-11-13T02:29:48.435Z,15.66
2022-11-13T02:30:40.717Z,15.61
2022-11-13T02:31:14.956Z,16.09
2022-11-13T02:32:01.734Z,16.36
2022-11-13T02:32:35.408Z,16.74
2022-11-13T02:33:43.726Z,16.10
2022-11-13T02:34:23.727Z,16.04
2022-11-13T02:35:03.759Z,16.23
2022-11-13T02:35:44.705Z,15.84
2022-11-13T02:36:28.903Z,16.23
2022-11-13T02:37:15.708Z,16.44
2022-11-13T02:37:49.747Z,16.13
2022-11-13T02:38:37.722Z,16.29
2022-11-13T02:39:16.865Z,16.41
2022-11-13T02:39:57.716Z,16.05
2022-11-13T02:40:39.785Z,16.24
2022-11-13T02:41:19.701Z,16.16
2022-11-13T02:41:59.768Z,15.95
2022-11-13T02:42:39.697Z,16.42
2022-11-13T02:43:19.739Z,16.27
2022-11-13T02:43:59.693Z,16.45
2022-11-13T02:44:39.753Z,15.90
2022-11-13T02:45:20.741Z,16.19
2022-11-13T02:46:00.753Z,16.36
2022-11-13T02:46:42.699Z,16.48
2022-11-13T02:47:22.748Z,16.31
2022-11-13T02:48:03.740Z,16.05
2022-11-13T02:48:43.736Z,16.52
2022-11-13T02:49:23.739Z,16.30
2022-11-13T02:50:03.773Z,16.45
2022-11-13T02:50:44.700Z,16.49
2022-11-13T02:51:24.752Z,16.31
2022-11-13T02:52:04.755Z,15.84
2022-11-13T02:52:44.828Z,15.97
2022-11-13T02:53:25.695Z,16.55
2022-11-13T02:54:05.747Z,16.51
2022-11-13T02:54:45.679Z,16.77
2022-11-13T02:55:25.811Z,16.27
2022-11-13T02:56:06.700Z,16.48
2022-11-13T02:56:46.759Z,16.64
2022-11-13T02:57:26.683Z,16.19
2022-11-13T02:58:06.747Z,16.33
2022-11-13T02:58:46.688Z,16.76
2022-11-13T02:59:26.732Z,16.73
2022-11-13T03:00:10.694Z,17.01
2022-11-13T03:00:53.738Z,17.20
2022-11-13T03:01:34.807Z,17.40
2022-11-13T03:02:14.732Z,16.76
2022-11-13T03:02:55.685Z,16.67
2022-11-13T03:05:05.395Z,17.21
2022-11-13T03:05:35.729Z,17.19
2022-11-13T03:06:15.689Z,16.73
2022-11-13T03:06:55.861Z,17.09
2022-11-13T03:07:29.753Z,17.00
2022-11-13T03:08:16.672Z,17.19
2022-11-13T03:08:50.761Z,17.33
2022-11-13T03:09:37.668Z,17.31
2022-11-13T03:10:12.757Z,17.09
2022-11-13T03:11:00.679Z,17.39
2022-11-13T03:11:34.757Z,17.88
2022-11-13T03:12:16.699Z,18.05
2022-11-13T03:12:56.718Z,17.31
2022-11-13T03:13:36.675Z,17.55
2022-11-13T03:14:16.737Z,17.45
2022-11-13T03:14:56.664Z,17.77
2022-11-13T03:15:36.729Z,17.54
2022-11-13T03:16:20.672Z,17.04
2022-11-13T03:17:00.703Z,17.55
2022-11-13T03:17:41.712Z,17.71
2022-11-13T03:18:21.787Z,17.95
2022-11-13T03:19:03.672Z,18.20
2022-11-13T03:19:43.754Z,17.59
2022-11-13T03:20:24.656Z,17.36
2022-11-13T03:21:04.715Z,17.38
2022-11-13T03:21:44.659Z,17.76
2022-11-13T03:22:24.913Z,17.86
2022-11-13T03:23:05.662Z,17.66
2022-11-13T03:23:46.832Z,16.95
2022-11-13T03:24:27.726Z,17.01
2022-11-13T03:25:10.695Z,17.36
2022-11-13T03:25:50.669Z,17.04
2022-11-13T03:26:30.752Z,16.97
2022-11-13T03:27:10.663Z,17.29
2022-11-13T03:27:50.697Z,17.41
2022-11-13T03:28:31.660Z,17.51
2022-11-13T03:29:11.695Z,16.99
2022-11-13T03:29:51.642Z,17.08
2022-11-13T03:30:31.730Z,17.24
2022-11-13T03:31:12.660Z,17.31
2022-11-13T03:31:52.713Z,17.15
2022-11-13T03:32:32.668Z,17.16
2022-11-13T03:33:12.696Z,16.79
2022-11-13T03:33:53.731Z,17.17
2022-11-13T03:34:33.734Z,17.44
2022-11-13T03:35:15.642Z,17.36
2022-11-13T03:35:55.752Z,17.15
2022-11-13T03:36:35.643Z,16.89
2022-11-13T03:37:15.695Z,16.90
2022-11-13T03:37:56.655Z,16.84
2022-11-13T03:38:36.716Z,16.90
2022-11-13T03:39:17.676Z,16.38
2022-11-13T03:39:57.696Z,16.46
2022-11-13T03:40:37.678Z,17.00
2022-11-13T03:41:17.801Z,16.55
2022-11-13T03:41:57.639Z,17.14
2022-11-13T03:42:37.680Z,16.96
2022-11-13T03:43:17.630Z,16.66
2022-11-13T03:43:57.744Z,17.30
2022-11-13T03:44:38.660Z,17.23
2022-11-13T03:45:18.705Z,16.86
2022-11-13T03:45:58.674Z,16.61
2022-11-13T03:46:38.688Z,16.56
2022-11-13T03:47:18.648Z,16.40
2022-11-13T03:47:58.701Z,16.38
2022-11-13T03:48:38.628Z,16.59
2022-11-13T03:49:18.707Z,16.17
2022-11-13T03:49:59.660Z,16.61
2022-11-13T03:50:45.238Z,16.45
2022-11-13T03:51:25.661Z,16.20
2022-11-13T03:52:05.679Z,16.09
2022-11-13T03:52:45.628Z,16.26
2022-11-13T03:53:25.693Z,16.60
2022-11-13T03:54:06.625Z,16.79
2022-11-13T03:54:46.673Z,16.49
2022-11-13T03:55:27.651Z,15.57
2022-11-13T03:56:07.668Z,15.52
2022-11-13T03:56:47.643Z,15.40
2022-11-13T03:57:27.731Z,15.41
2022-11-13T03:58:07.644Z,15.39
2022-11-13T03:58:49.702Z,15.21
2022-11-13T03:59:29.624Z,15.23
2022-11-13T04:00:14.659Z,15.19
2022-11-13T04:00:55.653Z,15.34
2022-11-13T04:01:35.704Z,14.61
2022-11-13T04:02:15.627Z,14.38
2022-11-13T04:02:55.676Z,14.32
2022-11-13T04:03:35.644Z,14.20
2022-11-13T04:04:15.778Z,14.04
2022-11-13T04:04:55.642Z,13.82
2022-11-13T04:05:35.669Z,13.69
2022-11-13T04:06:16.656Z,13.52
2022-11-13T04:06:56.695Z,13.55
2022-11-13T04:07:36.611Z,13.66
2022-11-13T04:08:16.696Z,13.88
2022-11-13T04:08:56.605Z,13.45
2022-11-13T04:09:36.663Z,12.70
2022-11-13T04:10:16.614Z,12.85
2022-11-13T04:10:56.679Z,13.16
2022-11-13T04:11:37.644Z,13.09
2022-11-13T04:12:17.656Z,13.01
2022-11-13T04:12:57.610Z,13.10
2022-11-13T04:13:37.684Z,13.13
2022-11-13T04:14:17.598Z,13.14
2022-11-13T04:14:57.738Z,12.51
2022-11-13T04:15:37.596Z,12.69
2022-11-13T04:16:17.677Z,12.99
2022-11-13T04:16:58.649Z,12.80
2022-11-13T04:17:38.674Z,12.94
2022-11-13T04:18:18.619Z,12.76
2022-11-13T04:18:58.675Z,12.79
2022-11-13T04:19:38.599Z,12.60
2022-11-13T04:20:18.631Z,12.79
2022-11-13T04:20:58.611Z,12.71
2022-11-13T04:21:38.636Z,12.54
2022-11-13T04:22:19.625Z,12.85
2022-11-13T04:23:00.665Z,13.71
2022-11-13T04:23:40.611Z,13.68
2022-11-13T04:24:20.674Z,13.35
2022-11-13T04:25:00.608Z,13.61
2022-11-13T04:25:40.672Z,13.65
2022-11-13T04:26:20.595Z,14.01
2022-11-13T04:27:01.638Z,14.30
2022-11-13T04:27:42.607Z,14.44
2022-11-13T04:28:22.656Z,14.35
2022-11-13T04:29:02.627Z,14.66
2022-11-13T04:29:42.646Z,14.19
2022-11-13T04:30:22.608Z,14.05
2022-11-13T04:31:02.683Z,14.39
2022-11-13T04:31:42.584Z,14.61
2022-11-13T04:32:22.640Z,14.64
2022-11-13T04:33:03.607Z,14.27
2022-11-13T04:33:43.630Z,14.64
2022-11-13T04:34:23.586Z,14.51
2022-11-13T04:35:03.614Z,14.41
2022-11-13T04:35:44.599Z,14.25
2022-11-13T04:36:24.649Z,14.51
2022-11-13T04:37:04.609Z,14.32
2022-11-13T04:37:44.665Z,14.21
2022-11-13T04:38:25.764Z,14.31
2022-11-13T04:39:05.617Z,14.71
2022-11-13T04:39:45.613Z,14.38
2022-11-13T04:40:25.695Z,14.60
2022-11-13T04:41:24.595Z,14.70
2022-11-13T04:42:23.361Z,14.60
2022-11-13T04:43:03.601Z,14.36
2022-11-13T04:43:44.621Z,14.73
2022-11-13T04:44:18.632Z,14.84
2022-11-13T04:45:05.586Z,15.30
2022-11-13T04:45:39.621Z,14.94
2022-11-13T04:46:26.573Z,14.48
2022-11-13T04:47:00.600Z,14.54
2022-11-13T04:47:47.571Z,14.60
2022-11-13T04:48:21.617Z,15.13
2022-11-13T04:49:08.619Z,14.84
2022-11-13T04:49:42.650Z,14.73
2022-11-13T04:50:29.581Z,14.68
2022-11-13T04:51:03.659Z,15.31
2022-11-13T04:51:50.567Z,15.01
2022-11-13T04:52:24.620Z,14.81
2022-11-13T04:53:11.585Z,15.15
2022-11-13T04:53:45.615Z,14.95
2022-11-13T04:54:32.584Z,14.98
2022-11-13T04:55:06.646Z,14.82
2022-11-13T04:55:53.585Z,14.64
2022-11-13T04:56:27.633Z,14.74
2022-11-13T04:57:14.594Z,14.77
2022-11-13T04:57:51.467Z,14.96
2022-11-13T04:58:38.591Z,14.38
2022-11-13T04:59:12.639Z,14.70
2022-11-13T04:59:53.583Z,14.73
2022-11-13T05:00:33.615Z,15.00
2022-11-13T05:01:13.553Z,15.00
2022-11-13T05:01:55.535Z,14.80
2022-11-13T05:02:35.576Z,14.84
2022-11-13T05:03:15.636Z,14.34
2022-11-13T05:03:55.588Z,14.91
2022-11-13T05:04:35.614Z,15.14
2022-11-13T05:05:16.590Z,14.70
2022-11-13T05:05:56.669Z,15.11
2022-11-13T05:06:36.612Z,15.05
2022-11-13T05:07:16.637Z,15.15
2022-11-13T05:07:56.556Z,15.39
2022-11-13T05:08:36.640Z,15.29
2022-11-13T05:09:17.570Z,15.00
2022-11-13T05:09:57.607Z,14.46
2022-11-13T05:10:38.620Z,14.69
2022-11-13T05:11:18.694Z,14.73
2022-11-13T05:11:58.546Z,14.36
2022-11-13T05:12:38.625Z,14.44
2022-11-13T05:13:18.546Z,14.34
2022-11-13T05:14:03.204Z,14.52
2022-11-13T05:14:45.573Z,14.40
2022-11-13T05:15:26.590Z,14.43
2022-11-13T05:16:13.571Z,14.63
2022-11-13T05:16:53.630Z,14.85
2022-11-13T05:17:33.556Z,14.59
2022-11-13T05:18:13.604Z,14.95
2022-11-13T05:18:54.545Z,14.86
2022-11-13T05:19:34.650Z,14.85
2022-11-13T05:20:15.540Z,14.90
2022-11-13T05:20:55.632Z,15.43
2022-11-13T05:21:36.580Z,15.21
2022-11-13T05:22:16.609Z,14.99
2022-11-13T05:22:56.558Z,15.04
2022-11-13T05:23:36.663Z,15.36
2022-11-13T05:24:18.544Z,15.19
2022-11-13T05:24:58.622Z,15.73
2022-11-13T05:25:38.542Z,15.74
2022-11-13T05:26:20.572Z,15.11
2022-11-13T05:27:01.547Z,15.26
2022-11-13T05:27:41.588Z,15.70
2022-11-13T05:28:21.573Z,15.52
2022-11-13T05:29:05.713Z,15.76
2022-11-13T05:29:46.552Z,15.85
2022-11-13T05:30:26.603Z,15.88
2022-11-13T05:31:33.539Z,16.02
2022-11-13T05:32:20.568Z,15.84
2022-11-13T05:33:14.533Z,15.94
2022-11-13T05:34:08.605Z,16.60
2022-11-13T05:35:02.549Z,16.51
2022-11-13T05:35:56.546Z,16.65
2022-11-13T05:36:50.547Z,16.50
2022-11-13T05:37:37.565Z,16.41
2022-11-13T05:38:11.573Z,16.42
2022-11-13T05:38:59.536Z,16.06
2022-11-13T05:39:33.594Z,16.29
2022-11-13T05:40:20.511Z,16.11
2022-11-13T05:40:54.638Z,16.35
2022-11-13T05:41:41.552Z,16.52
2022-11-13T05:42:15.595Z,16.59
2022-11-13T05:43:03.561Z,16.52
2022-11-13T05:43:37.574Z,16.59
2022-11-13T05:44:24.525Z,16.89
2022-11-13T05:44:58.576Z,16.51
2022-11-13T05:45:45.512Z,16.31
2022-11-13T05:46:28.634Z,15.79
2022-11-13T05:47:15.545Z,15.90
2022-11-13T05:47:50.355Z,15.88
2022-11-13T05:48:31.846Z,16.27
2022-11-13T05:49:12.567Z,16.55
2022-11-13T05:49:52.531Z,16.58
2022-11-13T05:50:32.649Z,16.88
2022-11-13T05:51:17.544Z,17.06
2022-11-13T05:51:57.578Z,17.39
2022-11-13T05:52:38.516Z,18.05
2022-11-13T05:53:18.565Z,18.37
2022-11-13T05:54:00.552Z,18.11
2022-11-13T05:54:40.562Z,18.29
2022-11-13T05:55:23.374Z,18.92
2022-11-13T05:56:21.601Z,18.77
2022-11-13T05:57:01.503Z,18.51
2022-11-13T05:57:41.571Z,18.08
2022-11-13T05:58:21.500Z,18.74
2022-11-13T05:59:09.538Z,18.59
2022-11-13T06:00:03.514Z,18.74
2022-11-13T06:00:57.529Z,18.61
2022-11-13T06:01:53.577Z,18.13
2022-11-13T06:02:48.527Z,18.40
2022-11-13T06:03:42.524Z,18.04
2022-11-13T06:04:29.534Z,17.49
2022-11-13T06:05:03.560Z,17.73
2022-11-13T06:05:50.484Z,17.63
2022-11-13T06:06:27.552Z,17.06
2022-11-13T06:07:14.591Z,17.08
2022-11-13T06:07:48.561Z,17.13
2022-11-13T06:08:36.523Z,17.48
2022-11-13T06:09:13.006Z,17.84
2022-11-13T06:09:52.516Z,17.58
2022-11-13T06:10:32.560Z,17.34
2022-11-13T06:11:16.532Z,17.58
2022-11-13T06:11:56.571Z,17.23
2022-11-13T06:12:37.516Z,17.96
2022-11-13T06:13:17.568Z,17.58
2022-11-13T06:13:58.511Z,17.33
2022-11-13T06:14:38.542Z,17.80
2022-11-13T06:15:18.560Z,17.91
2022-11-13T06:15:58.550Z,17.99
2022-11-13T06:16:44.499Z,17.54
2022-11-13T06:17:24.538Z,18.02
2022-11-13T06:18:04.492Z,18.17
2022-11-13T06:18:45.576Z,18.21
2022-11-13T06:19:25.484Z,17.51
2022-11-13T06:20:05.599Z,17.80
2022-11-13T06:20:45.515Z,18.39
2022-11-13T06:21:30.859Z,18.41
2022-11-13T06:22:10.519Z,18.38
2022-11-13T06:22:50.537Z,18.73
2022-11-13T06:23:30.492Z,18.85
2022-11-13T06:24:11.554Z,18.52
2022-11-13T06:24:51.492Z,18.31
2022-11-13T06:25:31.516Z,18.36
2022-11-13T06:26:19.508Z,18.44
2022-11-13T06:26:59.539Z,19.10
2022-11-13T06:27:39.483Z,20.30
2022-11-13T06:28:20.544Z,19.85
2022-11-13T06:29:01.494Z,19.76
2022-11-13T06:29:41.575Z,20.09
2022-11-13T06:30:21.471Z,20.09
2022-11-13T06:31:01.512Z,19.91
2022-11-13T06:31:43.497Z,20.01
2022-11-13T06:32:23.523Z,19.84
2022-11-13T06:33:03.497Z,20.52
2022-11-13T06:33:45.578Z,20.56
2022-11-13T06:34:25.484Z,20.63
2022-11-13T06:35:05.523Z,20.71
2022-11-13T06:35:45.481Z,20.40
2022-11-13T06:36:28.711Z,20.34
2022-11-13T06:37:08.492Z,20.41
2022-11-13T06:37:48.501Z,20.31
2022-11-13T06:38:28.687Z,20.75
2022-11-13T06:39:13.712Z,21.08
2022-11-13T06:39:53.497Z,21.08
2022-11-13T06:40:33.537Z,20.81
2022-11-13T06:41:18.477Z,20.67
2022-11-13T06:41:58.513Z,21.40
2022-11-13T06:42:38.494Z,21.70
2022-11-13T06:43:18.514Z,22.10
2022-11-13T06:44:02.787Z,23.02
2022-11-13T06:44:43.500Z,23.18
2022-11-13T06:45:23.474Z,22.71
2022-11-13T06:46:04.893Z,22.29
2022-11-13T06:46:44.467Z,22.21
2022-11-13T06:47:24.544Z,22.91
2022-11-13T06:48:04.505Z,22.44
2022-11-13T06:48:44.616Z,22.34
2022-11-13T06:49:24.459Z,22.64
2022-11-13T06:50:04.507Z,22.27
2022-11-13T06:50:48.280Z,22.40
2022-11-13T06:51:33.906Z,23.50
2022-11-13T06:52:14.472Z,23.38
2022-11-13T06:52:54.527Z,23.39
2022-11-13T06:53:35.487Z,22.25
2022-11-13T06:54:15.502Z,22.41
2022-11-13T06:54:55.467Z,22.19
2022-11-13T06:55:35.496Z,22.59
2022-11-13T06:56:16.625Z,23.01
2022-11-13T06:56:56.512Z,22.61
2022-11-13T06:57:36.440Z,22.90
2022-11-13T06:58:16.490Z,22.71
2022-11-13T06:58:57.503Z,23.11
2022-11-13T06:59:37.533Z,23.25
2022-11-13T07:00:18.460Z,23.00
2022-11-13T07:00:59.520Z,23.21
2022-11-13T07:01:39.551Z,23.95
2022-11-13T07:02:20.488Z,24.27
2022-11-13T07:03:00.440Z,23.77
2022-11-13T07:03:40.545Z,23.84
2022-11-13T07:04:21.460Z,24.13
2022-11-13T07:04:55.181Z,23.76
2022-11-13T07:05:42.463Z,24.01
2022-11-13T07:06:20.114Z,23.86
2022-11-13T07:07:07.501Z,24.02
2022-11-13T07:07:41.161Z,23.67
2022-11-13T07:08:29.793Z,23.86
2022-11-13T07:09:04.233Z,23.79
2022-11-13T07:09:45.464Z,23.61
2022-11-13T07:10:19.473Z,24.46
2022-11-13T07:10:56.638Z,25.14
2022-11-13T07:11:36.431Z,24.49
2022-11-13T07:12:12.519Z,24.81
2022-11-13T07:12:49.405Z,25.21
2022-11-13T07:13:34.448Z,24.75
2022-11-13T07:14:08.467Z,25.31
2022-11-13T07:14:42.124Z,25.91
2022-11-13T07:15:23.474Z,26.60
2022-11-13T07:15:57.493Z,26.44
2022-11-13T07:17:08.087Z,26.48
2022-11-13T07:17:38.535Z,26.65
2022-11-13T07:18:25.747Z,26.51
2022-11-13T07:19:00.495Z,26.35
2022-11-13T07:19:47.474Z,27.04
2022-11-13T07:20:21.552Z,27.24
2022-11-13T07:21:01.477Z,26.81
2022-11-13T07:21:41.511Z,26.86
2022-11-13T07:22:21.430Z,26.75
2022-11-13T07:23:06.505Z,26.41
2022-11-13T07:23:49.440Z,27.00
2022-11-13T07:24:29.493Z,27.17
2022-11-13T07:25:09.439Z,27.17
2022-11-13T07:25:49.538Z,26.46
2022-11-13T07:26:30.450Z,26.09
2022-11-13T07:27:10.478Z,26.98
2022-11-13T07:27:53.442Z,27.40
2022-11-13T07:28:33.547Z,26.88
2022-11-13T07:29:13.428Z,25.96
2022-11-13T07:29:53.479Z,26.36
2022-11-13T07:30:34.426Z,27.30
2022-11-13T07:31:16.571Z,27.36
2022-11-13T07:31:56.456Z,27.49
2022-11-13T07:32:37.095Z,27.23
2022-11-13T07:33:17.508Z,27.95
2022-11-13T07:33:57.603Z,27.80
2022-11-13T07:34:38.426Z,27.94
2022-11-13T07:35:20.515Z,27.88
2022-11-13T07:36:04.423Z,28.04
2022-11-13T07:36:44.596Z,28.74
2022-11-13T07:37:25.431Z,28.19
2022-11-13T07:38:06.492Z,29.20
2022-11-13T07:38:46.429Z,29.60
2022-11-13T07:39:28.469Z,28.58
2022-11-13T07:40:09.466Z,28.63
2022-11-13T07:40:49.484Z,27.92
2022-11-13T07:41:30.447Z,27.56
2022-11-13T07:42:11.619Z,28.29
2022-11-13T07:42:52.433Z,28.17
2022-11-13T07:43:33.468Z,27.77
2022-11-13T07:44:27.262Z,27.74
2022-11-13T07:45:14.553Z,27.74
2022-11-13T07:46:00.433Z,28.08
2022-11-13T07:46:40.458Z,28.06
2022-11-13T07:47:20.416Z,27.96
2022-11-13T07:48:16.468Z,28.36
2022-11-13T07:49:10.411Z,28.54
2022-11-13T07:50:10.748Z,27.71
2022-11-13T07:51:06.455Z,27.92
2022-11-13T07:52:00.446Z,28.23
2022-11-13T07:52:55.425Z,28.48
2022-11-13T07:53:36.445Z,29.05
2022-11-13T07:54:16.493Z,30.33
2022-11-13T07:54:56.392Z,29.91
2022-11-13T07:55:36.693Z,30.11
2022-11-13T07:56:23.003Z,30.09
2022-11-13T07:57:04.527Z,30.01
2022-11-13T07:57:45.414Z,30.30
2022-11-13T07:58:25.551Z,30.75
2022-11-13T07:59:05.431Z,31.17
2022-11-13T07:59:47.504Z,31.25
2022-11-13T08:00:28.471Z,30.52
2022-11-13T08:01:12.486Z,31.09
2022-11-13T08:01:53.387Z,31.92
2022-11-13T08:02:34.437Z,31.33
2022-11-13T08:03:18.398Z,30.77
2022-11-13T08:03:58.478Z,31.39
2022-11-13T08:04:40.437Z,31.24
2022-11-13T08:05:21.452Z,31.10
2022-11-13T08:06:11.402Z,31.33
2022-11-13T08:06:52.549Z,31.58
2022-11-13T08:07:32.396Z,31.14
2022-11-13T08:08:13.464Z,31.65
2022-11-13T08:08:56.411Z,31.95
2022-11-13T08:09:36.414Z,31.39
2022-11-13T08:10:17.417Z,30.69
2022-11-13T08:10:58.515Z,30.95
2022-11-13T08:11:39.387Z,32.20
2022-11-13T08:12:19.447Z,32.01
2022-11-13T08:13:12.396Z,31.49
2022-11-13T08:13:52.507Z,32.19
2022-11-13T08:14:32.394Z,33.44
2022-11-13T08:15:13.784Z,33.30
2022-11-13T08:15:54.366Z,33.01
2022-11-13T08:16:49.395Z,31.59
2022-11-13T08:17:47.696Z,30.26
2022-11-13T08:18:43.392Z,30.50
2022-11-13T08:19:37.384Z,31.08
2022-11-13T08:20:31.381Z,30.94
2022-11-13T08:21:18.392Z,30.88
2022-11-13T08:21:52.478Z,31.16
2022-11-13T08:22:42.379Z,30.48
2022-11-13T08:23:16.404Z,30.24
2022-11-13T08:24:03.399Z,30.25
2022-11-13T08:24:37.430Z,30.70
2022-11-13T08:25:26.380Z,30.61
2022-11-13T08:26:00.441Z,30.33
2022-11-13T08:26:44.389Z,30.10
2022-11-13T08:27:30.250Z,29.83
2022-11-13T08:28:13.300Z,30.51
2022-11-13T08:28:54.476Z,31.19
2022-11-13T08:29:34.355Z,32.06
2022-11-13T08:30:16.617Z,32.28
2022-11-13T08:30:59.371Z,33.16
2022-11-13T08:31:39.425Z,32.11
2022-11-13T08:32:24.388Z,31.89
2022-11-13T08:33:04.499Z,32.88
2022-11-13T08:33:45.384Z,31.85
2022-11-13T08:34:25.424Z,31.17
2022-11-13T08:35:05.350Z,31.79
2022-11-13T08:35:45.422Z,31.49
2022-11-13T08:36:25.617Z,30.98
2022-11-13T08:37:06.406Z,31.23
2022-11-13T08:37:47.403Z,31.31
2022-11-13T08:38:27.857Z,32.35
2022-11-13T08:39:09.380Z,32.03
2022-11-13T08:39:49.410Z,32.51
2022-11-13T08:40:29.380Z,32.60
2022-11-13T08:41:11.983Z,33.00
2022-11-13T08:41:53.350Z,33.25
2022-11-13T08:42:35.468Z,33.33
2022-11-13T08:43:17.397Z,33.24
2022-11-13T08:43:58.408Z,32.92
2022-11-13T08:44:38.372Z,33.16
2022-11-13T08:45:20.443Z,32.15
2022-11-13T08:46:02.692Z,31.80
2022-11-13T08:46:42.398Z,31.66
2022-11-13T08:47:28.278Z,31.40
2022-11-13T08:48:11.417Z,31.03
2022-11-13T08:48:51.353Z,30.75
2022-11-13T08:49:31.455Z,30.54
2022-11-13T08:50:13.369Z,30.80
2022-11-13T08:50:53.404Z,30.85
2022-11-13T08:51:33.359Z,30.81
2022-11-13T08:52:13.396Z,30.65
2022-11-13T08:52:54.370Z,31.15
2022-11-13T08:53:34.459Z,30.19
2022-11-13T08:54:14.368Z,31.02
2022-11-13T08:54:57.501Z,31.69
2022-11-13T08:55:39.339Z,32.22
2022-11-13T08:56:19.962Z,33.79
2022-11-13T08:57:05.658Z,35.69